Time;durP1;ratioP1;P1;durP2;ratioP2;P2;SDS_P1;SDS_P2;PMS_P1;PMS_P2;Temp;Humidity;BMP_temperature;BMP_pressure;BME280_temperature;BME280_humidity;BME280_pressure;Samples;Min_cycle;Max_cycle;Signal;HPM_P1;HPM_P2
2023/11/16 05:09:04;;;;;;;15.38;3.65;;;6.10;99.90;;;;;;1479417;26;20052;-66
2023/11/16 05:14:11;;;;;;;13.90;3.78;;;6.10;99.90;;;;;;5220160;22;20053;-60
2023/11/16 05:16:37;;;;;;;10.18;3.72;;;6.10;99.90;;;;;;5019808;28;20037;-60
2023/11/16 05:19:02;;;;;;;15.15;4.35;;;6.10;99.90;;;;;;5022969;28;20056;-61
2023/11/16 05:21:28;;;;;;;18.83;4.07;;;6.10;99.90;;;;;;5027141;28;20041;-61
2023/11/16 05:23:54;;;;;;;11.43;3.53;;;6.00;99.90;;;;;;4995508;28;20042;-61
2023/11/16 05:26:20;;;;;;;12.32;3.50;;;6.00;99.90;;;;;;5005142;28;20034;-61
2023/11/16 05:28:45;;;;;;;10.15;3.70;;;6.00;99.90;;;;;;5002865;28;20061;-61
2023/11/16 05:31:11;;;;;;;12.02;3.88;;;6.00;99.90;;;;;;5004158;28;20045;-61
2023/11/16 05:33:38;;;;;;;17.02;3.65;;;6.00;99.90;;;;;;5007471;28;20129;-60
2023/11/16 05:36:04;;;;;;;15.00;4.00;;;6.00;99.90;;;;;;5007273;28;20061;-60
2023/11/16 05:38:29;;;;;;;16.50;4.10;;;6.00;99.90;;;;;;5002067;28;20052;-61
2023/11/16 05:40:55;;;;;;;9.13;3.13;;;6.00;99.90;;;;;;5003568;28;20049;-60
2023/11/16 05:43:21;;;;;;;8.15;3.30;;;6.00;99.90;;;;;;5003846;28;20129;-60
2023/11/16 05:45:46;;;;;;;15.32;3.92;;;6.10;99.90;;;;;;5004170;28;20453;-60
2023/11/16 05:48:12;;;;;;;;;;;6.00;99.90;;;;;;5006320;28;20037;-61
2023/11/16 05:50:38;;;;;;;11.97;3.10;;;6.00;99.90;;;;;;5008008;28;20459;-62
2023/11/16 05:53:03;;;;;;;;;;;5.90;99.90;;;;;;5005738;28;20041;-61
2023/11/16 05:55:34;;;;;;;5.75;2.83;;;5.90;99.90;;;;;;5007799;28;19927;-61
2023/11/16 05:57:59;;;;;;;9.23;2.55;;;6.00;99.90;;;;;;5007029;28;20042;-62
2023/11/16 06:00:26;;;;;;;7.57;2.83;;;5.90;99.90;;;;;;5007081;28;20137;-62
2023/11/16 06:02:51;;;;;;;7.10;2.85;;;6.00;99.90;;;;;;5007094;28;20095;-61
2023/11/16 06:05:18;;;;;;;7.20;2.55;;;6.00;99.90;;;;;;5003736;28;20042;-63
2023/11/16 06:07:43;;;;;;;9.02;2.75;;;6.00;99.90;;;;;;5007197;28;20137;-63
2023/11/16 06:10:10;;;;;;;8.35;2.78;;;6.00;99.90;;;;;;5005565;28;20129;-61
2023/11/16 06:12:38;;;;;;;9.75;3.67;;;5.90;99.90;;;;;;5005210;28;20049;-63
2023/11/16 06:15:06;;;;;;;9.00;2.95;;;6.00;99.90;;;;;;5004099;28;20065;-65
2023/11/16 06:17:31;;;;;;;6.80;2.88;;;6.00;99.90;;;;;;5002606;28;20097;-64
2023/11/16 06:19:57;;;;;;;10.00;3.55;;;6.00;99.90;;;;;;5006575;28;20062;-65
2023/11/16 06:22:23;;;;;;;9.05;3.20;;;6.00;99.90;;;;;;5005683;28;20128;-65
2023/11/16 06:24:48;;;;;;;9.50;3.40;;;5.90;99.90;;;;;;5007160;28;20610;-62
2023/11/16 06:27:14;;;;;;;7.63;2.95;;;5.90;99.90;;;;;;5005530;28;20544;-63
2023/11/16 06:29:40;;;;;;;10.65;3.08;;;5.90;99.90;;;;;;5003526;28;20037;-61
2023/11/16 06:32:07;;;;;;;9.27;3.85;;;6.00;99.90;;;;;;5002688;28;20034;-64
2023/11/16 06:34:34;;;;;;;6.10;3.20;;;6.00;99.90;;;;;;5006271;28;20041;-64
2023/11/16 06:37:04;;;;;;;4.95;2.70;;;5.90;99.90;;;;;;5006697;28;20041;-65
2023/11/16 06:39:29;;;;;;;9.27;2.75;;;5.90;99.90;;;;;;5003797;28;20052;-64
2023/11/16 06:41:56;;;;;;;10.13;2.83;;;5.90;99.90;;;;;;5005194;28;20471;-65
2023/11/16 06:44:22;;;;;;;6.90;2.47;;;5.80;99.90;;;;;;5003493;28;20069;-62
2023/11/16 06:46:47;;;;;;;9.70;2.50;;;5.80;99.90;;;;;;5007054;28;20057;-60
2023/11/16 06:49:13;;;;;;;5.72;3.03;;;5.90;99.90;;;;;;5004730;28;20065;-64
2023/11/16 06:51:38;;;;;;;6.25;2.22;;;5.90;99.90;;;;;;5006711;28;20034;-59
2023/11/16 06:54:06;;;;;;;5.43;2.60;;;5.90;99.90;;;;;;5007719;28;20038;-64
2023/11/16 06:56:34;;;;;;;6.25;2.75;;;6.00;99.90;;;;;;5007385;28;20054;-63
2023/11/16 06:59:00;;;;;;;10.82;2.60;;;5.90;99.90;;;;;;5006889;28;20041;-60
2023/11/16 07:01:29;;;;;;;5.65;2.70;;;5.90;99.90;;;;;;5005774;28;20038;-63
2023/11/16 07:03:55;;;;;;;5.20;2.28;;;5.90;99.90;;;;;;5006113;28;20481;-54
2023/11/16 07:06:21;;;;;;;5.93;2.63;;;5.90;99.90;;;;;;5006441;28;20052;-55
2023/11/16 07:08:47;;;;;;;7.47;2.80;;;5.90;99.90;;;;;;5006501;28;20488;-59
2023/11/16 07:11:12;;;;;;;4.97;2.58;;;5.90;99.90;;;;;;5005858;28;20481;-59
2023/11/16 07:13:38;;;;;;;10.32;2.80;;;5.90;99.90;;;;;;5005809;28;20124;-58
2023/11/16 07:16:04;;;;;;;5.35;2.92;;;5.90;99.90;;;;;;5005590;28;20400;-61
2023/11/16 07:18:30;;;;;;;7.38;2.30;;;5.90;99.90;;;;;;5004963;28;20124;-58
2023/11/16 07:20:58;;;;;;;6.95;2.03;;;5.90;99.90;;;;;;5005968;28;20711;-57
2023/11/16 07:23:25;;;;;;;4.53;1.85;;;6.00;99.90;;;;;;4987805;28;20535;-56
2023/11/16 07:25:51;;;;;;;6.75;2.33;;;6.00;99.90;;;;;;5006751;28;20041;-56
2023/11/16 07:28:17;;;;;;;10.48;2.35;;;6.00;99.90;;;;;;5007440;28;20049;-59
2023/11/16 07:30:43;;;;;;;3.33;1.60;;;6.00;99.90;;;;;;5009626;28;20046;-56
2023/11/16 07:33:11;;;;;;;3.80;2.00;;;6.00;99.90;;;;;;4991592;28;20038;-59
2023/11/16 07:35:37;;;;;;;3.50;1.90;;;6.00;99.90;;;;;;5009422;28;20042;-59
2023/11/16 07:38:04;;;;;;;2.90;1.63;;;6.00;99.90;;;;;;5001918;28;20037;-61
2023/11/16 07:40:29;;;;;;;3.03;1.75;;;6.00;99.90;;;;;;5001895;28;20049;-59
2023/11/16 07:42:55;;;;;;;3.67;1.50;;;6.00;99.90;;;;;;5001718;28;20041;-59
2023/11/16 07:45:21;;;;;;;2.80;1.40;;;6.10;99.90;;;;;;5001328;28;20069;-57
2023/11/16 07:47:47;;;;;;;2.53;1.58;;;6.10;99.90;;;;;;5009618;28;20133;-58
2023/11/16 07:50:14;;;;;;;1.75;1.00;;;6.10;99.90;;;;;;5008200;28;20057;-62
2023/11/16 07:52:43;;;;;;;3.75;1.20;;;6.10;99.90;;;;;;5002795;28;20040;-59
2023/11/16 07:55:21;;;;;;;2.22;1.40;;;6.20;99.90;;;;;;5004576;28;20034;-58
2023/11/16 07:57:49;;;;;;;3.95;1.17;;;6.20;99.90;;;;;;5005256;28;20046;-61
2023/11/16 08:00:47;;;;;;;2.25;0.98;;;6.20;99.90;;;;;;5008790;28;20112;-61
2023/11/16 08:05:54;;;;;;;2.45;1.10;;;6.20;99.90;;;;;;5006947;28;20041;-62
2023/11/16 08:08:20;;;;;;;3.70;1.15;;;6.20;99.90;;;;;;5004651;28;20037;-63
2023/11/16 08:10:48;;;;;;;1.75;0.98;;;6.30;99.90;;;;;;5004843;28;20132;-62
2023/11/16 08:13:17;;;;;;;2.25;1.05;;;6.30;99.90;;;;;;5005028;28;20045;-62
2023/11/16 08:15:43;;;;;;;2.90;0.90;;;6.30;99.90;;;;;;5007341;28;20136;-58
2023/11/16 08:18:10;;;;;;;1.55;0.70;;;6.30;99.90;;;;;;5008769;28;20430;-60
2023/11/16 08:20:36;;;;;;;0.88;0.52;;;6.40;99.90;;;;;;5005812;28;20050;-62
2023/11/16 08:23:02;;;;;;;1.70;0.60;;;6.40;99.90;;;;;;5005921;28;20127;-57
2023/11/16 08:25:30;;;;;;;1.10;0.52;;;6.50;99.90;;;;;;5009443;28;20068;-60
2023/11/16 08:27:56;;;;;;;1.92;0.70;;;6.50;99.90;;;;;;5006245;28;20119;-53
2023/11/16 08:30:22;;;;;;;2.95;0.60;;;6.40;99.90;;;;;;5004352;28;20121;-56
2023/11/16 08:32:48;;;;;;;1.52;0.63;;;6.50;99.90;;;;;;5004875;28;20395;-57
2023/11/16 08:35:14;;;;;;;;;;;6.40;99.90;;;;;;5006213;28;20038;-57
2023/11/16 08:37:41;;;;;;;1.40;0.70;;;6.40;99.90;;;;;;5007776;28;20300;-61
2023/11/16 08:40:16;;;;;;;1.80;0.60;;;6.40;99.90;;;;;;5005630;28;20029;-65
2023/11/16 08:42:42;;;;;;;1.23;0.65;;;6.50;99.90;;;;;;4996525;28;20045;-58
2023/11/16 08:45:17;;;;;;;0.75;0.75;;;6.50;99.90;;;;;;5005429;28;20656;-60
2023/11/16 08:47:45;;;;;;;1.58;0.82;;;6.50;99.90;;;;;;5004918;28;20099;-61
2023/11/16 08:50:12;;;;;;;4.57;0.90;;;6.50;99.90;;;;;;5009038;28;20042;-60
2023/11/16 08:52:42;;;;;;;0.70;0.70;;;6.50;99.90;;;;;;5005274;28;20037;-57
2023/11/16 08:55:11;;;;;;;1.15;0.80;;;6.60;99.90;;;;;;5007264;28;20121;-60
2023/11/16 08:57:39;;;;;;;0.80;0.63;;;6.60;99.90;;;;;;4986666;28;20176;-61
2023/11/16 09:02:51;;;;;;;1.17;0.85;;;6.60;99.90;;;;;;5005166;28;20486;-60
2023/11/16 09:05:18;;;;;;;1.20;0.80;;;6.70;99.90;;;;;;5005531;28;20037;-61
2023/11/16 09:07:44;;;;;;;3.53;0.95;;;6.70;99.90;;;;;;5006517;28;20045;-58
2023/11/16 09:10:13;;;;;;;2.65;1.00;;;6.80;99.90;;;;;;5006163;28;20789;-58
2023/11/16 09:12:42;;;;;;;3.17;1.00;;;6.90;99.90;;;;;;5005609;28;20099;-57
2023/11/16 09:15:10;;;;;;;2.08;0.93;;;7.00;99.90;;;;;;5004160;28;20045;-56
2023/11/16 09:17:40;;;;;;;2.17;0.98;;;7.00;99.90;;;;;;5003409;28;20054;-56
2023/11/16 09:20:10;;;;;;;2.63;1.20;;;7.10;99.90;;;;;;5008282;28;20492;-60
2023/11/16 09:22:42;;;;;;;2.95;1.10;;;7.20;99.90;;;;;;5006217;28;20042;-63
2023/11/16 09:25:15;;;;;;;2.13;0.88;;;7.20;99.90;;;;;;5007838;28;20524;-63
2023/11/16 09:27:43;;;;;;;3.03;1.00;;;7.30;99.90;;;;;;5006570;28;20563;-63
2023/11/16 09:30:14;;;;;;;2.53;1.00;;;7.20;99.90;;;;;;5007730;28;20038;-60
2023/11/16 09:32:44;;;;;;;2.28;0.90;;;7.30;99.90;;;;;;5001442;28;20029;-63
2023/11/16 09:35:14;;;;;;;2.70;0.90;;;7.30;99.90;;;;;;5007998;28;20073;-63
2023/11/16 09:37:45;;;;;;;1.77;1.10;;;7.30;99.90;;;;;;5010318;28;20065;-62
2023/11/16 09:40:15;;;;;;;1.85;1.35;;;7.30;99.90;;;;;;5007585;28;20033;-61
2023/11/16 09:42:44;;;;;;;3.88;1.20;;;7.20;99.90;;;;;;5003660;28;20034;-61
2023/11/16 09:45:10;;;;;;;1.25;1.10;;;7.30;99.90;;;;;;5007300;28;20107;-62
2023/11/16 09:47:45;;;;;;;2.67;1.30;;;7.20;99.90;;;;;;5005949;28;20050;-63
2023/11/16 09:50:12;;;;;;;2.53;1.10;;;7.20;99.90;;;;;;5006292;28;20128;-62
2023/11/16 09:52:41;;;;;;;2.90;1.33;;;7.20;99.90;;;;;;5005251;28;20085;-62
2023/11/16 09:55:10;;;;;;;3.10;1.45;;;7.10;99.90;;;;;;5007009;28;20121;-62
2023/11/16 09:57:41;;;;;;;1.65;1.40;;;7.20;99.90;;;;;;5006326;28;20056;-61
2023/11/16 10:00:15;;;;;;;3.63;1.38;;;7.20;99.90;;;;;;5007392;28;20133;-61
2023/11/16 10:02:55;;;;;;;3.40;1.27;;;7.20;99.90;;;;;;4987519;28;20583;-62
2023/11/16 10:05:40;;;;;;;3.25;1.40;;;7.20;99.90;;;;;;5007657;28;20049;-63
2023/11/16 10:08:08;;;;;;;1.20;1.10;;;7.20;99.90;;;;;;5006483;28;20099;-62
2023/11/16 10:10:35;;;;;;;3.20;1.70;;;7.20;99.90;;;;;;5005845;28;20053;-61
2023/11/16 10:13:03;;;;;;;3.55;1.33;;;7.30;99.90;;;;;;5002050;28;20087;-59
2023/11/16 10:15:30;;;;;;;2.15;1.65;;;7.30;99.90;;;;;;4999236;28;20042;-62
2023/11/16 10:17:55;;;;;;;2.17;1.60;;;7.40;99.90;;;;;;5000150;28;20046;-61
2023/11/16 10:20:23;;;;;;;1.40;1.00;;;7.40;99.90;;;;;;4988489;28;20042;-62
2023/11/16 10:22:52;;;;;;;1.77;1.50;;;7.50;99.90;;;;;;5004634;28;20053;-62
2023/11/16 10:25:17;;;;;;;2.35;1.30;;;7.50;99.90;;;;;;5006460;28;20065;-61
2023/11/16 10:27:43;;;;;;;;;;;7.60;99.90;;;;;;5002470;28;20045;-62
2023/11/16 10:30:15;;;;;;;3.25;1.40;;;7.60;99.90;;;;;;5006863;28;19921;-62
2023/11/16 10:32:47;;;;;;;1.73;1.30;;;7.70;99.90;;;;;;5004059;28;20128;-62
2023/11/16 10:35:14;;;;;;;2.53;1.15;;;7.80;99.90;;;;;;5006848;28;20049;-61
2023/11/16 10:37:44;;;;;;;2.28;1.05;;;7.80;99.90;;;;;;5003333;28;20152;-62
2023/11/16 10:40:11;;;;;;;1.95;1.35;;;7.80;99.90;;;;;;5007198;28;20541;-62
2023/11/16 10:42:45;;;;;;;3.33;1.30;;;7.80;99.90;;;;;;5001872;28;20034;-61
2023/11/16 10:45:13;;;;;;;3.03;1.17;;;7.80;99.90;;;;;;5001050;28;20030;-61
2023/11/16 10:47:42;;;;;;;1.70;1.00;;;7.70;99.90;;;;;;4998291;28;20639;-61
2023/11/16 10:50:10;;;;;;;1.77;1.00;;;7.70;99.90;;;;;;5002341;28;20516;-61
2023/11/16 10:52:39;;;;;;;2.80;1.10;;;7.70;99.90;;;;;;4977271;28;20042;-61
2023/11/16 10:55:13;;;;;;;1.35;1.05;;;7.60;99.90;;;;;;4996750;28;20109;-60
2023/11/16 10:57:40;;;;;;;3.65;1.15;;;7.60;99.90;;;;;;5000027;28;20679;-61
2023/11/16 11:00:16;;;;;;;3.00;0.93;;;7.60;99.90;;;;;;5002183;28;20517;-62
2023/11/16 11:02:44;;;;;;;2.17;1.17;;;7.60;99.90;;;;;;4995555;28;20042;-61
2023/11/16 11:05:11;;;;;;;2.90;1.10;;;7.60;99.90;;;;;;4998096;28;20490;-62
2023/11/16 11:07:53;;;;;;;3.72;1.40;;;7.60;99.90;;;;;;5000464;28;20088;-62
2023/11/16 11:10:22;;;;;;;1.80;1.33;;;7.60;99.90;;;;;;4992339;28;20050;-61
2023/11/16 11:12:48;;;;;;;1.45;1.10;;;7.50;99.90;;;;;;4997756;28;20505;-62
2023/11/16 11:15:27;;;;;;;2.53;1.42;;;7.50;99.90;;;;;;5001224;28;20104;-61
2023/11/16 11:17:53;;;;;;;3.45;1.25;;;7.50;99.90;;;;;;5000895;28;20046;-62
2023/11/16 11:20:36;;;;;;;2.58;1.25;;;7.50;99.90;;;;;;5006330;28;20433;-62
2023/11/16 11:23:06;;;;;;;2.13;1.23;;;7.50;99.90;;;;;;5002111;28;20806;-63
2023/11/16 11:25:33;;;;;;;5.05;1.33;;;7.40;99.90;;;;;;5003549;28;20684;-61
2023/11/16 11:27:59;;;;;;;1.83;1.10;;;7.30;99.90;;;;;;5005472;28;20088;-62
2023/11/16 11:30:26;;;;;;;1.90;1.25;;;7.20;99.90;;;;;;5003104;28;20046;-62
2023/11/16 11:33:05;;;;;;;1.98;1.27;;;7.20;99.90;;;;;;5005189;28;20084;-62
2023/11/16 11:35:35;;;;;;;5.30;1.77;;;7.30;99.90;;;;;;5005350;28;20130;-63
2023/11/16 11:38:29;;;;;;;2.00;1.25;;;7.30;99.90;;;;;;5007239;28;20397;-62
2023/11/16 11:41:12;;;;;;;6.00;1.45;;;7.30;99.90;;;;;;5001263;28;20184;-63
2023/11/16 11:43:42;;;;;;;4.88;1.50;;;7.30;99.90;;;;;;5004090;28;20096;-63
2023/11/16 11:46:16;;;;;;;4.65;1.58;;;7.30;99.90;;;;;;5001900;28;20498;-62
2023/11/16 11:48:48;;;;;;;2.55;1.45;;;7.30;99.90;;;;;;5004496;28;20731;-62
2023/11/16 11:51:16;;;;;;;2.85;1.20;;;7.30;99.90;;;;;;5001622;28;20069;-62
2023/11/16 11:53:45;;;;;;;2.20;1.27;;;7.20;99.90;;;;;;5001982;28;20402;-62
2023/11/16 11:56:12;;;;;;;1.70;1.17;;;7.20;99.90;;;;;;5005979;28;20037;-63
2023/11/16 11:58:41;;;;;;;1.98;1.65;;;7.20;99.90;;;;;;5005182;28;20520;-62
2023/11/16 12:01:10;;;;;;;1.95;1.58;;;7.20;99.90;;;;;;5000144;28;20045;-62
2023/11/16 12:03:35;;;;;;;2.05;1.20;;;7.20;99.90;;;;;;4987514;28;20042;-63
2023/11/16 12:06:02;;;;;;;2.20;1.80;;;7.20;99.90;;;;;;5000391;28;20054;-63
2023/11/16 12:08:44;;;;;;;3.00;1.80;;;7.20;99.90;;;;;;4999408;28;20125;-62
2023/11/16 12:11:11;;;;;;;1.85;1.45;;;7.30;99.90;;;;;;4997344;28;20042;-63
2023/11/16 12:13:40;;;;;;;3.58;1.30;;;7.20;99.90;;;;;;5005153;28;20050;-62
2023/11/16 12:16:07;;;;;;;2.55;1.38;;;7.20;99.90;;;;;;5000440;28;20069;-63
2023/11/16 12:18:35;;;;;;;3.47;1.45;;;7.20;99.90;;;;;;5007975;28;20100;-63
2023/11/16 12:21:05;;;;;;;1.98;1.00;;;7.20;99.90;;;;;;4999993;28;20077;-63
2023/11/16 12:23:30;;;;;;;1.92;1.23;;;7.20;99.90;;;;;;5007728;28;20144;-63
2023/11/16 12:25:59;;;;;;;;;;;7.10;99.90;;;;;;5002600;28;20132;-63
2023/11/16 12:28:26;;;;;;;1.55;1.05;;;7.10;99.90;;;;;;5003742;28;20106;-63
2023/11/16 12:30:52;;;;;;;1.85;1.30;;;7.10;99.90;;;;;;5005929;28;20041;-63
2023/11/16 12:33:18;;;;;;;2.33;1.20;;;7.10;99.90;;;;;;5007641;28;20045;-62
2023/11/16 12:35:43;;;;;;;1.70;1.55;;;7.20;99.90;;;;;;5009139;28;20418;-62
2023/11/16 12:38:10;;;;;;;;;;;7.20;99.90;;;;;;5005354;28;20034;-62
2023/11/16 12:40:36;;;;;;;;;;;7.30;99.90;;;;;;5001160;28;19925;-64
2023/11/16 12:43:03;;;;;;;3.92;1.45;;;7.30;99.90;;;;;;5000073;28;19921;-63
2023/11/16 12:45:31;;;;;;;2.17;1.20;;;7.30;99.90;;;;;;5001797;28;20048;-63
2023/11/16 12:47:57;;;;;;;4.63;1.30;;;7.20;99.90;;;;;;5002917;28;20555;-64
2023/11/16 12:50:23;;;;;;;2.85;1.17;;;7.20;99.90;;;;;;5000325;28;20054;-63
2023/11/16 12:52:48;;;;;;;3.72;1.30;;;7.20;99.90;;;;;;5007211;28;20567;-62
2023/11/16 12:55:14;;;;;;;;;;;7.20;99.90;;;;;;5003831;28;20045;-63
2023/11/16 12:57:46;;;;;;;2.13;1.08;;;7.10;99.90;;;;;;5008027;28;19947;-62
2023/11/16 13:00:12;;;;;;;5.15;1.48;;;7.10;99.90;;;;;;5005210;28;20133;-63
2023/11/16 13:02:38;;;;;;;2.65;1.55;;;7.10;99.90;;;;;;4997270;28;20113;-61
2023/11/16 13:05:06;;;;;;;2.08;1.65;;;7.00;99.90;;;;;;4998375;28;20157;-64
2023/11/16 13:07:33;;;;;;;3.03;1.30;;;7.00;99.90;;;;;;4998658;28;20052;-63
2023/11/16 13:10:01;;;;;;;2.55;1.48;;;7.10;99.90;;;;;;5002953;28;20053;-63
2023/11/16 13:12:27;;;;;;;7.88;1.58;;;7.10;99.90;;;;;;5003291;28;20073;-63
2023/11/16 13:14:52;;;;;;;2.10;1.10;;;7.10;99.90;;;;;;5004572;28;20066;-61
2023/11/16 13:17:18;;;;;;;;;;;7.10;99.90;;;;;;5004319;28;20440;-62
2023/11/16 13:19:44;;;;;;;1.88;1.35;;;7.10;99.90;;;;;;5006984;28;19953;-63
2023/11/16 13:22:10;;;;;;;;;;;7.10;99.90;;;;;;5007725;28;20121;-62
2023/11/16 13:24:35;;;;;;;7.03;2.45;;;7.10;99.90;;;;;;5007108;28;19925;-62
2023/11/16 13:27:03;;;;;;;2.97;1.52;;;7.10;99.90;;;;;;5007291;28;20038;-63
2023/11/16 13:29:29;;;;;;;3.83;1.80;;;7.00;99.90;;;;;;5006356;28;20033;-61
2023/11/16 13:31:55;;;;;;;2.17;1.35;;;7.00;99.90;;;;;;5006727;28;20095;-61
2023/11/16 13:34:21;;;;;;;;;;;7.00;99.90;;;;;;5007980;28;20497;-62
2023/11/16 13:36:47;;;;;;;6.13;1.50;;;7.10;99.90;;;;;;5007493;28;20478;-60
2023/11/16 13:39:15;;;;;;;;;;;7.10;99.90;;;;;;5006924;28;20304;-62
2023/11/16 13:41:41;;;;;;;2.58;1.30;;;7.10;99.90;;;;;;5004104;28;19982;-62
2023/11/16 13:44:08;;;;;;;5.55;1.63;;;7.10;99.90;;;;;;4984284;28;20046;-62
2023/11/16 13:46:33;;;;;;;3.00;1.42;;;7.10;99.90;;;;;;5007376;28;20410;-63
2023/11/16 13:48:59;;;;;;;3.05;1.40;;;7.10;99.90;;;;;;5006764;28;20051;-63
2023/11/16 13:51:25;;;;;;;;;;;7.10;99.90;;;;;;4990437;28;20106;-62
2023/11/16 13:53:51;;;;;;;5.35;1.95;;;7.10;99.90;;;;;;5007467;28;19917;-62
2023/11/16 13:56:17;;;;;;;4.65;1.73;;;7.00;99.90;;;;;;5004834;28;20077;-62
2023/11/16 13:58:42;;;;;;;2.92;1.90;;;7.00;99.90;;;;;;5007111;28;20454;-61
2023/11/16 14:01:09;;;;;;;3.92;2.00;;;7.00;99.90;;;;;;5000900;28;20034;-60
2023/11/16 14:03:34;;;;;;;2.78;1.88;;;7.00;99.90;;;;;;5003071;28;20525;-62
2023/11/16 14:06:03;;;;;;;3.88;1.50;;;7.00;99.90;;;;;;5003652;28;20042;-62
2023/11/16 14:08:29;;;;;;;2.20;1.30;;;7.00;99.90;;;;;;5004748;28;20068;-63
2023/11/16 14:10:58;;;;;;;3.50;1.83;;;7.00;99.90;;;;;;5004068;28;20038;-61
2023/11/16 14:13:26;;;;;;;1.33;1.23;;;7.00;99.90;;;;;;5006094;28;20520;-63
2023/11/16 14:15:52;;;;;;;4.00;1.42;;;7.00;99.90;;;;;;5006990;28;20080;-62
2023/11/16 14:18:17;;;;;;;3.90;1.58;;;7.00;99.90;;;;;;5005060;28;20080;-64
2023/11/16 14:20:43;;;;;;;3.08;1.25;;;6.90;99.90;;;;;;5005216;28;20625;-60
2023/11/16 14:23:08;;;;;;;1.88;1.33;;;6.80;99.90;;;;;;5005329;28;20034;-56
2023/11/16 14:25:34;;;;;;;1.38;0.90;;;6.80;99.90;;;;;;5007014;28;20049;-62
2023/11/16 14:28:01;;;;;;;1.45;1.10;;;6.80;99.90;;;;;;5004968;28;20034;-60
2023/11/16 14:30:26;;;;;;;2.03;1.02;;;6.80;99.90;;;;;;5003598;28;20140;-63
2023/11/16 14:32:52;;;;;;;2.25;1.30;;;6.80;99.90;;;;;;5003661;28;20176;-59
2023/11/16 14:35:19;;;;;;;4.28;1.20;;;6.70;99.90;;;;;;5006173;28;20103;-61
2023/11/16 14:37:44;;;;;;;5.47;1.38;;;6.70;99.90;;;;;;5003108;28;20042;-63
2023/11/16 14:40:11;;;;;;;4.07;1.33;;;6.70;99.90;;;;;;5001819;28;20038;-63
2023/11/16 14:42:37;;;;;;;3.58;1.40;;;6.60;99.90;;;;;;5002107;28;20038;-63
2023/11/16 14:45:03;;;;;;;3.03;1.35;;;6.60;99.90;;;;;;5005697;28;20537;-63
2023/11/16 14:47:28;;;;;;;3.67;1.38;;;6.60;99.90;;;;;;5003227;28;20081;-63
2023/11/16 14:49:54;;;;;;;3.50;1.40;;;6.60;99.90;;;;;;5002766;28;20084;-63
2023/11/16 14:52:19;;;;;;;4.95;1.58;;;6.60;99.90;;;;;;4999547;28;22726;-63
2023/11/16 14:54:46;;;;;;;2.95;1.50;;;6.60;99.90;;;;;;5002793;28;20037;-63
2023/11/16 14:57:12;;;;;;;3.10;1.38;;;6.60;99.90;;;;;;5000696;28;20038;-62
2023/11/16 14:59:38;;;;;;;3.78;1.75;;;6.60;99.90;;;;;;5004862;28;20050;-63
2023/11/16 15:02:04;;;;;;;3.92;2.25;;;6.50;99.90;;;;;;5005330;28;20107;-62
2023/11/16 15:04:30;;;;;;;3.78;1.55;;;6.50;99.90;;;;;;5002625;28;20042;-62
2023/11/16 15:06:56;;;;;;;3.22;2.00;;;6.60;99.90;;;;;;5004485;28;21953;-63
2023/11/16 15:09:22;;;;;;;3.40;2.28;;;6.50;99.90;;;;;;4999798;28;20053;-63
2023/11/16 15:11:48;;;;;;;5.32;1.83;;;6.40;99.90;;;;;;5005948;28;20405;-62
2023/11/16 15:14:14;;;;;;;2.80;1.80;;;6.40;99.90;;;;;;5000365;28;20116;-63
2023/11/16 15:16:45;;;;;;;3.78;1.92;;;6.40;99.90;;;;;;5002315;28;20037;-62
2023/11/16 15:19:12;;;;;;;5.43;2.28;;;6.40;99.90;;;;;;5004896;28;20124;-63
2023/11/16 15:21:39;;;;;;;2.92;2.00;;;6.40;99.90;;;;;;5004833;28;20333;-62
2023/11/16 15:24:11;;;;;;;3.55;2.08;;;6.40;99.90;;;;;;5002130;28;20494;-62
2023/11/16 15:26:38;;;;;;;6.20;1.90;;;6.30;99.90;;;;;;5004857;28;20048;-63
2023/11/16 15:29:04;;;;;;;3.50;2.13;;;6.40;99.90;;;;;;5005492;28;20034;-63
2023/11/16 15:31:34;;;;;;;2.72;1.92;;;6.30;99.90;;;;;;5002155;28;20042;-61
2023/11/16 15:34:01;;;;;;;4.03;2.13;;;6.30;99.90;;;;;;5002624;28;20579;-58
2023/11/16 15:36:27;;;;;;;3.65;2.75;;;6.40;99.90;;;;;;5004228;28;20049;-61
2023/11/16 15:38:52;;;;;;;4.88;2.20;;;6.30;99.90;;;;;;5003113;28;20047;-59
2023/11/16 15:41:18;;;;;;;3.20;2.28;;;6.30;99.90;;;;;;5005945;28;20124;-61
2023/11/16 15:43:44;;;;;;;5.65;2.25;;;6.40;99.90;;;;;;5005306;28;20117;-62
2023/11/16 15:46:14;;;;;;;5.47;2.08;;;6.40;99.90;;;;;;5004990;28;20046;-61
2023/11/16 15:48:41;;;;;;;5.05;2.67;;;6.40;99.90;;;;;;5006220;28;20518;-58
2023/11/16 15:51:09;;;;;;;5.05;2.40;;;6.40;99.90;;;;;;5010612;28;20104;-60
2023/11/16 15:53:35;;;;;;;4.75;2.97;;;6.30;99.90;;;;;;5008172;28;20045;-61
2023/11/16 15:56:05;;;;;;;3.97;2.30;;;6.30;99.90;;;;;;5010365;28;20743;-62
2023/11/16 15:58:31;;;;;;;4.35;2.63;;;6.30;99.90;;;;;;5008091;28;20121;-61
2023/11/16 16:00:58;;;;;;;3.60;2.65;;;6.30;99.90;;;;;;5005095;28;20116;-62
2023/11/16 16:03:27;;;;;;;4.22;2.22;;;6.30;99.90;;;;;;5005949;28;20046;-62
2023/11/16 16:05:53;;;;;;;6.43;2.60;;;6.30;99.90;;;;;;5008068;28;20038;-63
2023/11/16 16:08:19;;;;;;;3.30;2.33;;;6.20;99.90;;;;;;5010318;28;20045;-62
2023/11/16 16:10:44;;;;;;;;;;;6.10;99.90;;;;;;5009411;28;20084;-62
2023/11/16 16:13:10;;;;;;;3.05;1.92;;;6.00;99.90;;;;;;5008032;28;19975;-62
2023/11/16 16:15:36;;;;;;;2.35;1.63;;;6.00;99.90;;;;;;5009831;28;20679;-62
2023/11/16 16:18:03;;;;;;;3.97;2.20;;;6.00;99.90;;;;;;5009133;28;20052;-63
2023/11/16 16:20:28;;;;;;;2.50;1.60;;;6.00;99.90;;;;;;5009449;28;20045;-61
2023/11/16 16:22:56;;;;;;;4.80;1.60;;;5.90;99.90;;;;;;5008091;28;20061;-62
2023/11/16 16:25:22;;;;;;;2.83;1.67;;;6.00;99.90;;;;;;5004285;28;20096;-61
2023/11/16 16:27:50;;;;;;;4.35;1.63;;;5.90;99.90;;;;;;5004755;28;20053;-63
2023/11/16 16:30:16;;;;;;;2.60;1.48;;;5.90;99.90;;;;;;5005272;28;20124;-62
2023/11/16 16:32:42;;;;;;;3.63;1.55;;;5.90;99.90;;;;;;5006070;28;20104;-63
2023/11/16 16:35:08;;;;;;;3.13;1.35;;;5.90;99.90;;;;;;5008363;28;20034;-64
2023/11/16 16:37:34;;;;;;;3.63;1.23;;;5.90;99.90;;;;;;5006873;28;20100;-63
2023/11/16 16:40:00;;;;;;;3.80;1.70;;;5.90;99.90;;;;;;5009466;28;20048;-62
2023/11/16 16:42:27;;;;;;;4.00;1.70;;;5.90;99.90;;;;;;5007475;28;20042;-64
2023/11/16 16:44:53;;;;;;;2.85;1.80;;;5.90;99.90;;;;;;5009555;28;20045;-63
2023/11/16 16:47:20;;;;;;;5.22;1.60;;;5.90;99.90;;;;;;5007681;28;20077;-63
2023/11/16 16:49:46;;;;;;;6.63;1.80;;;5.90;99.90;;;;;;5009084;28;20131;-64
2023/11/16 16:52:11;;;;;;;3.45;1.80;;;5.90;99.90;;;;;;5008308;28;20506;-66
2023/11/16 16:54:38;;;;;;;;;;;5.80;99.90;;;;;;5008057;28;20038;-63
2023/11/16 16:57:04;;;;;;;;;;;5.80;99.90;;;;;;5010028;28;19929;-61
2023/11/16 16:59:33;;;;;;;3.75;2.13;;;5.80;99.90;;;;;;5011557;28;19929;-62
2023/11/16 17:01:59;;;;;;;8.18;2.15;;;5.70;99.90;;;;;;5001168;28;20052;-63
2023/11/16 17:04:26;;;;;;;3.25;2.20;;;5.70;99.90;;;;;;5006253;28;20041;-61
2023/11/16 17:06:52;;;;;;;2.05;1.63;;;5.60;99.90;;;;;;5008844;28;20411;-62
2023/11/16 17:09:18;;;;;;;3.70;2.03;;;5.60;99.90;;;;;;5006443;28;20490;-63
2023/11/16 17:11:44;;;;;;;5.05;1.60;;;5.70;99.90;;;;;;5007147;28;20042;-63
2023/11/16 17:14:09;;;;;;;3.95;1.85;;;5.70;99.90;;;;;;5006986;28;20136;-62
2023/11/16 17:16:35;;;;;;;3.42;2.00;;;5.80;99.90;;;;;;5007402;28;20704;-63
2023/11/16 17:19:01;;;;;;;5.18;1.83;;;5.80;99.90;;;;;;5005861;28;20894;-62
2023/11/16 17:21:27;;;;;;;2.20;1.50;;;5.80;99.90;;;;;;5007840;28;20411;-61
2023/11/16 17:23:53;;;;;;;4.57;1.67;;;5.80;99.90;;;;;;5007131;28;20947;-63
2023/11/16 17:26:19;;;;;;;3.25;1.50;;;5.80;99.90;;;;;;5005921;28;20053;-63
2023/11/16 17:28:45;;;;;;;1.67;1.48;;;5.80;99.90;;;;;;5003918;28;20458;-61
2023/11/16 17:31:12;;;;;;;2.10;1.13;;;5.80;99.90;;;;;;5003727;28;20049;-62
2023/11/16 17:33:38;;;;;;;1.67;1.30;;;5.80;99.90;;;;;;5006050;28;20430;-63
2023/11/16 17:36:04;;;;;;;1.70;1.42;;;5.80;99.90;;;;;;5008697;28;20107;-64
2023/11/16 17:38:33;;;;;;;4.35;1.50;;;5.80;99.90;;;;;;5007322;28;20050;-64
2023/11/16 17:41:04;;;;;;;1.77;1.25;;;5.90;99.90;;;;;;5008049;28;20116;-63
2023/11/16 17:43:40;;;;;;;3.35;1.90;;;5.90;99.90;;;;;;5005747;28;20498;-64
2023/11/16 17:46:07;;;;;;;6.35;1.80;;;5.90;99.90;;;;;;5008191;28;20041;-62
2023/11/16 17:48:33;;;;;;;7.28;2.50;;;5.90;99.90;;;;;;5006319;28;20053;-64
2023/11/16 17:51:00;;;;;;;4.28;2.30;;;5.80;99.90;;;;;;5007430;28;20037;-63
2023/11/16 17:53:27;;;;;;;3.65;2.40;;;5.80;99.90;;;;;;5004801;28;20077;-64
2023/11/16 17:55:54;;;;;;;6.72;2.47;;;5.70;99.90;;;;;;5004368;28;20042;-64
2023/11/16 17:58:22;;;;;;;2.78;2.03;;;5.70;99.90;;;;;;5007001;28;20050;-64
2023/11/16 18:00:48;;;;;;;5.60;2.47;;;5.70;99.90;;;;;;5004813;28;20129;-63
2023/11/16 18:03:14;;;;;;;9.35;2.42;;;5.60;99.90;;;;;;5005971;28;20038;-63
2023/11/16 18:05:41;;;;;;;2.28;1.88;;;5.70;99.90;;;;;;5007033;28;20136;-62
2023/11/16 18:08:08;;;;;;;10.63;2.83;;;5.60;99.90;;;;;;5005863;28;20041;-62
2023/11/16 18:10:35;;;;;;;6.53;2.50;;;5.60;99.90;;;;;;5002716;28;20532;-64
2023/11/16 18:13:07;;;;;;;3.75;2.72;;;5.60;99.90;;;;;;5004128;28;20042;-63
2023/11/16 18:15:35;;;;;;;3.63;1.95;;;5.60;99.90;;;;;;5006156;28;20425;-63
2023/11/16 18:18:02;;;;;;;5.90;2.65;;;5.70;99.90;;;;;;4997783;28;20809;-63